createdAt,value
2023-04-19T00:02:12.954Z,52.50
2023-04-19T00:07:19.023Z,52.50
2023-04-19T00:12:25.002Z,52.50
2023-04-19T00:17:29.207Z,52.70
2023-04-19T00:22:33.073Z,52.60
2023-04-19T00:27:38.514Z,52.60
2023-04-19T00:33:12.979Z,52.80
2023-04-19T00:38:22.995Z,53.20
2023-04-19T00:43:28.013Z,52.80
2023-04-19T00:48:32.203Z,52.90
2023-04-19T00:54:03.615Z,52.80
2023-04-19T00:59:10.736Z,53.30
2023-04-19T01:04:23.470Z,53.00
2023-04-19T01:09:27.153Z,52.90
2023-04-19T01:14:42.470Z,52.90
2023-04-19T01:20:16.150Z,53.10
2023-04-19T01:25:23.474Z,53.10
2023-04-19T01:30:26.871Z,53.00
2023-04-19T01:35:32.257Z,52.90
2023-04-19T01:40:45.007Z,53.00
2023-04-19T01:45:55.604Z,53.40
2023-04-19T01:50:59.274Z,53.40
2023-04-19T01:56:22.954Z,53.20
2023-04-19T02:01:26.311Z,53.60
2023-04-19T02:06:29.710Z,53.10
2023-04-19T02:11:34.596Z,53.10
2023-04-19T02:16:38.083Z,53.30
2023-04-19T02:21:47.641Z,53.20
2023-04-19T02:27:01.200Z,53.90
2023-04-19T02:32:08.956Z,53.60
2023-04-19T02:37:19.821Z,53.40
2023-04-19T02:42:42.396Z,53.30
2023-04-19T02:47:47.089Z,53.50
2023-04-19T02:52:50.469Z,53.50
2023-04-19T02:57:57.908Z,53.60
2023-04-19T03:03:04.116Z,53.70
2023-04-19T03:08:11.393Z,53.60
2023-04-19T03:13:19.426Z,53.70
2023-04-19T03:18:29.815Z,54.10
2023-04-19T03:23:36.578Z,53.90
2023-04-19T03:28:46.562Z,54.00
2023-04-19T03:34:08.923Z,54.30
2023-04-19T03:39:22.695Z,54.00
2023-04-19T03:44:44.639Z,54.00
2023-04-19T03:49:51.409Z,54.20
2023-04-19T03:55:03.128Z,54.00
2023-04-19T04:00:24.608Z,54.50
2023-04-19T04:05:33.881Z,54.70
2023-04-19T04:10:37.622Z,54.20
2023-04-19T04:16:03.337Z,54.20
2023-04-19T04:21:10.690Z,54.80
2023-04-19T04:26:25.596Z,54.30
2023-04-19T04:31:37.301Z,54.60
2023-04-19T04:36:43.339Z,54.40
2023-04-19T04:41:47.444Z,54.30
2023-04-19T04:46:55.969Z,54.30
2023-04-19T04:52:04.962Z,54.40
2023-04-19T04:57:17.438Z,54.40
2023-04-19T05:02:22.722Z,54.40
2023-04-19T05:07:28.007Z,54.40
2023-04-19T05:12:34.158Z,54.40
2023-04-19T05:17:44.902Z,54.20
2023-04-19T05:22:49.130Z,54.20
2023-04-19T05:27:52.652Z,54.20
2023-04-19T05:33:06.014Z,54.10
2023-04-19T05:38:09.523Z,54.50
2023-04-19T05:43:13.585Z,54.80
2023-04-19T05:48:21.512Z,54.30
2023-04-19T05:53:49.878Z,54.40
2023-04-19T05:59:06.996Z,54.40
2023-04-19T06:04:15.420Z,54.40
2023-04-19T06:09:19.828Z,54.50
2023-04-19T06:14:23.498Z,54.30
2023-04-19T06:19:29.285Z,54.30
2023-04-19T06:24:35.656Z,54.30
2023-04-19T06:29:42.891Z,54.10
2023-04-19T06:34:47.938Z,54.20
2023-04-19T06:40:01.121Z,54.20
2023-04-19T06:45:06.330Z,54.00
2023-04-19T06:50:13.401Z,54.00
2023-04-19T06:55:17.105Z,54.00
2023-04-19T07:00:26.887Z,54.00
2023-04-19T07:05:32.314Z,53.90
2023-04-19T07:10:44.998Z,53.80
2023-04-19T07:15:56.020Z,54.00
2023-04-19T07:21:00.705Z,54.00
2023-04-19T07:26:04.745Z,54.20
2023-04-19T07:31:10.212Z,54.30
2023-04-19T07:36:15.066Z,54.40
2023-04-19T07:41:18.367Z,54.50
2023-04-19T07:46:21.650Z,54.40
2023-04-19T07:51:26.520Z,54.10
2023-04-19T07:56:29.651Z,53.90
2023-04-19T08:01:36.517Z,54.00
2023-04-19T08:06:54.764Z,54.10
2023-04-19T08:11:58.460Z,53.70
2023-04-19T08:17:24.247Z,54.30
2023-04-19T08:22:40.946Z,54.20
2023-04-19T08:27:44.361Z,53.80
2023-04-19T08:32:58.198Z,53.80
2023-04-19T08:38:06.707Z,53.80
2023-04-19T08:43:13.090Z,53.60
2023-04-19T08:48:19.238Z,53.50
2023-04-19T08:53:26.135Z,53.90
2023-04-19T08:58:52.101Z,52.70
2023-04-19T09:04:13.036Z,52.40
2023-04-19T09:14:43.126Z,52.50
2023-04-19T09:19:54.320Z,52.60
2023-04-19T09:25:35.531Z,52.10
2023-04-19T09:30:35.941Z,51.80
2023-04-19T09:35:50.264Z,52.90
2023-04-19T09:41:11.448Z,52.00
2023-04-19T09:46:33.399Z,52.20
2023-04-19T09:51:47.443Z,51.90
2023-04-19T09:56:58.913Z,51.60
2023-04-19T10:02:06.776Z,52.00
2023-04-19T10:17:37.935Z,50.80
2023-04-19T10:22:42.387Z,51.30
2023-04-19T10:27:49.152Z,51.10
2023-04-19T10:32:57.765Z,51.20
2023-04-19T10:38:09.436Z,51.10
2023-04-19T10:43:18.346Z,50.80
2023-04-19T10:48:41.315Z,50.30
2023-04-19T10:54:06.347Z,50.70
2023-04-19T10:59:29.189Z,50.50
2023-04-19T11:05:02.076Z,50.30
2023-04-19T11:10:06.905Z,48.60
2023-04-19T11:15:14.461Z,50.10
2023-04-19T11:20:18.136Z,49.90
2023-04-19T11:25:26.899Z,50.30
2023-04-19T11:30:32.303Z,49.60
2023-04-19T11:35:36.236Z,49.30
2023-04-19T11:40:42.447Z,48.80
2023-04-19T11:46:21.847Z,48.60
2023-04-19T11:51:26.457Z,47.00
2023-04-19T12:22:32.007Z,46.10
2023-04-19T12:27:55.962Z,45.70
2023-04-19T12:33:34.718Z,45.70
2023-04-19T12:39:09.925Z,45.00
2023-04-19T12:44:33.055Z,45.30
2023-04-19T12:49:57.978Z,45.70
2023-04-19T12:55:23.139Z,45.10
2023-04-19T13:00:45.987Z,44.40
2023-04-19T13:06:15.001Z,45.10
2023-04-19T13:11:43.168Z,44.50
2023-04-19T13:17:13.374Z,44.80
2023-04-19T13:22:38.993Z,43.10
2023-04-19T13:28:15.454Z,44.20
2023-04-19T13:33:41.045Z,43.00
2023-04-19T13:39:12.041Z,43.40
2023-04-19T13:44:36.972Z,43.10
2023-04-19T13:50:02.080Z,43.40
2023-04-19T13:55:44.797Z,42.20
2023-04-19T14:01:19.779Z,42.80
2023-04-19T14:06:59.146Z,40.60
2023-04-19T14:12:31.041Z,42.40
2023-04-19T14:50:49.895Z,40.00
2023-04-19T14:56:16.813Z,42.40
2023-04-19T15:01:44.902Z,42.00
2023-04-19T15:07:10.790Z,42.70
2023-04-19T15:12:36.814Z,41.50
2023-04-19T15:17:59.883Z,42.60
2023-04-19T15:23:27.852Z,40.50
2023-04-19T15:28:53.159Z,41.30
2023-04-19T15:34:19.301Z,40.40
2023-04-19T15:39:44.945Z,40.60
2023-04-19T15:45:09.895Z,40.00
2023-04-19T15:50:40.833Z,40.10
2023-04-19T15:56:06.797Z,39.70
2023-04-19T16:01:29.907Z,39.50
2023-04-19T16:07:07.876Z,39.90
2023-04-19T16:12:34.834Z,38.50
2023-04-19T16:18:00.328Z,39.50
2023-04-19T16:23:22.880Z,39.10
2023-04-19T16:28:48.977Z,39.90
2023-04-19T16:34:17.843Z,38.90
2023-04-19T16:39:41.033Z,39.30
2023-04-19T16:45:14.955Z,38.70
2023-04-19T16:50:44.858Z,38.40
2023-04-19T16:56:10.022Z,38.60
2023-04-19T17:01:35.288Z,38.80
2023-04-19T17:06:59.972Z,39.10
2023-04-19T17:12:25.984Z,38.70
2023-04-19T17:17:53.035Z,39.00
2023-04-19T17:23:15.884Z,37.80
2023-04-19T17:28:39.870Z,38.80
2023-04-19T17:34:05.119Z,37.80
2023-04-19T17:39:33.952Z,38.60
2023-04-19T17:44:56.921Z,38.20
2023-04-19T17:50:29.103Z,39.10
2023-04-19T17:55:53.163Z,38.70
2023-04-19T18:01:17.096Z,38.70
2023-04-19T18:06:44.753Z,39.40
2023-04-19T18:12:10.902Z,38.70
2023-04-19T18:17:33.991Z,39.30
2023-04-19T18:23:08.028Z,38.70
2023-04-19T18:28:37.862Z,39.20
2023-04-19T18:34:07.058Z,38.90
2023-04-19T18:39:37.820Z,39.20
2023-04-19T18:45:00.948Z,39.00
2023-04-19T18:50:37.107Z,39.50
2023-04-19T18:56:14.151Z,39.20
2023-04-19T19:01:43.713Z,39.00
2023-04-19T19:07:18.198Z,39.50
2023-04-19T19:12:51.986Z,39.40
2023-04-19T19:18:17.050Z,39.70
2023-04-19T19:23:52.537Z,39.60
2023-04-19T19:29:22.383Z,39.50
2023-04-19T19:34:54.921Z,39.60
2023-04-19T19:40:31.109Z,39.90
2023-04-19T19:45:57.064Z,39.80
2023-04-19T19:51:52.158Z,40.20
2023-04-19T20:02:56.666Z,40.20
2023-04-19T20:08:31.001Z,40.40
2023-04-19T20:14:21.210Z,40.20
2023-04-19T20:32:50.424Z,40.60
2023-04-19T20:39:23.031Z,40.80
2023-04-19T20:45:41.165Z,40.80
2023-04-19T20:51:41.342Z,40.90
2023-04-19T20:57:54.632Z,41.00
2023-04-19T21:10:49.937Z,41.00
2023-04-19T21:17:08.316Z,41.10
2023-04-19T21:22:40.056Z,41.10
2023-04-19T21:28:03.018Z,41.00
2023-04-19T21:33:27.999Z,41.10
2023-04-19T21:38:53.042Z,41.30
2023-04-19T21:44:24.247Z,41.30
2023-04-19T21:49:50.084Z,41.30
2023-04-19T21:55:16.100Z,41.30
2023-04-19T22:00:42.135Z,41.20
2023-04-19T22:06:15.207Z,41.30
2023-04-19T22:11:40.090Z,41.20
2023-04-19T22:17:03.159Z,41.40
2023-04-19T22:22:35.176Z,41.40
2023-04-19T22:28:07.228Z,41.40
2023-04-19T22:33:30.114Z,41.50
2023-04-19T22:38:57.073Z,41.50
2023-04-19T22:44:20.185Z,41.50
2023-04-19T22:49:48.217Z,41.60
2023-04-19T22:55:14.325Z,41.60
2023-04-19T23:00:43.922Z,41.80
2023-04-19T23:06:08.253Z,41.80
2023-04-19T23:11:34.109Z,42.10
2023-04-19T23:17:01.378Z,42.20
2023-04-19T23:22:24.114Z,41.90
2023-04-19T23:27:51.641Z,41.90
2023-04-19T23:33:14.314Z,42.10
2023-04-19T23:38:37.247Z,42.00
2023-04-19T23:44:04.106Z,42.20
2023-04-19T23:49:27.424Z,42.20
2023-04-19T23:54:50.114Z,42.50
